sensor_id;sensor_type;location;lat;lon;timestamp;temperature;humidity
11188;DHT22;5650;52.700;7.306;2023-10-19T00:00:55;8.00;99.90
11188;DHT22;5650;52.700;7.306;2023-10-19T00:03:23;8.00;99.90
11188;DHT22;5650;52.700;7.306;2023-10-19T00:05:55;8.00;99.90
11188;DHT22;5650;52.700;7.306;2023-10-19T00:08:22;8.00;99.90
11188;DHT22;5650;52.700;7.306;2023-10-19T00:10:50;8.00;99.90
11188;DHT22;5650;52.700;7.306;2023-10-19T00:13:29;8.00;99.90
11188;DHT22;5650;52.700;7.306;2023-10-19T00:15:56;8.00;99.90
11188;DHT22;5650;52.700;7.306;2023-10-19T00:18:27;8.00;99.90
11188;DHT22;5650;52.700;7.306;2023-10-19T00:20:58;8.00;99.90
11188;DHT22;5650;52.700;7.306;2023-10-19T00:23:28;8.00;99.90
11188;DHT22;5650;52.700;7.306;2023-10-19T00:25:57;8.00;99.90
11188;DHT22;5650;52.700;7.306;2023-10-19T00:28:24;8.00;99.90
11188;DHT22;5650;52.700;7.306;2023-10-19T00:30:54;8.00;99.90
11188;DHT22;5650;52.700;7.306;2023-10-19T00:33:33;8.00;99.90
11188;DHT22;5650;52.700;7.306;2023-10-19T00:36:07;8.00;99.90
11188;DHT22;5650;52.700;7.306;2023-10-19T00:38:39;8.00;99.90
11188;DHT22;5650;52.700;7.306;2023-10-19T00:41:08;8.00;99.90
11188;DHT22;5650;52.700;7.306;2023-10-19T00:43:42;8.00;99.90
11188;DHT22;5650;52.700;7.306;2023-10-19T00:46:16;8.00;99.90
11188;DHT22;5650;52.700;7.306;2023-10-19T00:48:53;8.00;99.90
11188;DHT22;5650;52.700;7.306;2023-10-19T00:51:26;8.00;99.90
11188;DHT22;5650;52.700;7.306;2023-10-19T00:54:11;8.00;99.90
11188;DHT22;5650;52.700;7.306;2023-10-19T00:56:42;8.00;99.90
11188;DHT22;5650;52.700;7.306;2023-10-19T00:59:15;8.00;99.90
11188;DHT22;5650;52.700;7.306;2023-10-19T01:01:47;8.10;99.90
11188;DHT22;5650;52.700;7.306;2023-10-19T01:04:24;8.00;99.90
11188;DHT22;5650;52.700;7.306;2023-10-19T01:06:58;8.10;99.90
11188;DHT22;5650;52.700;7.306;2023-10-19T01:09:33;8.10;99.90
11188;DHT22;5650;52.700;7.306;2023-10-19T01:12:02;8.10;99.90
11188;DHT22;5650;52.700;7.306;2023-10-19T01:15:00;8.00;99.90
11188;DHT22;5650;52.700;7.306;2023-10-19T01:17:33;8.00;99.90
11188;DHT22;5650;52.700;7.306;2023-10-19T01:20:08;8.10;99.90
11188;DHT22;5650;52.700;7.306;2023-10-19T01:22:59;8.10;99.90
11188;DHT22;5650;52.700;7.306;2023-10-19T01:25:53;8.10;99.90
11188;DHT22;5650;52.700;7.306;2023-10-19T01:28:35;8.10;99.90
11188;DHT22;5650;52.700;7.306;2023-10-19T01:31:18;8.10;99.90
11188;DHT22;5650;52.700;7.306;2023-10-19T01:33:57;8.10;99.90
11188;DHT22;5650;52.700;7.306;2023-10-19T01:36:25;8.10;99.90
11188;DHT22;5650;52.700;7.306;2023-10-19T01:38:55;8.10;99.90
11188;DHT22;5650;52.700;7.306;2023-10-19T01:41:24;8.10;99.90
11188;DHT22;5650;52.700;7.306;2023-10-19T01:43:53;8.10;99.90
11188;DHT22;5650;52.700;7.306;2023-10-19T01:46:21;8.10;99.90
11188;DHT22;5650;52.700;7.306;2023-10-19T01:48:53;8.10;99.90
11188;DHT22;5650;52.700;7.306;2023-10-19T01:51:25;8.10;99.90
11188;DHT22;5650;52.700;7.306;2023-10-19T01:53:54;8.20;99.90
11188;DHT22;5650;52.700;7.306;2023-10-19T01:56:21;8.10;99.90
11188;DHT22;5650;52.700;7.306;2023-10-19T01:58:52;8.10;99.90
11188;DHT22;5650;52.700;7.306;2023-10-19T02:01:22;8.20;99.90
11188;DHT22;5650;52.700;7.306;2023-10-19T02:04:01;8.10;99.90
11188;DHT22;5650;52.700;7.306;2023-10-19T02:06:32;8.10;99.90
11188;DHT22;5650;52.700;7.306;2023-10-19T02:09:04;8.10;99.90
11188;DHT22;5650;52.700;7.306;2023-10-19T02:11:46;8.10;99.90
11188;DHT22;5650;52.700;7.306;2023-10-19T02:14:14;8.20;99.90
11188;DHT22;5650;52.700;7.306;2023-10-19T02:16:42;8.10;99.90
11188;DHT22;5650;52.700;7.306;2023-10-19T02:19:09;8.20;99.90
11188;DHT22;5650;52.700;7.306;2023-10-19T02:21:39;8.20;99.90
11188;DHT22;5650;52.700;7.306;2023-10-19T02:24:08;8.10;99.90
11188;DHT22;5650;52.700;7.306;2023-10-19T02:26:37;8.20;99.90
11188;DHT22;5650;52.700;7.306;2023-10-19T02:29:03;8.20;99.90
11188;DHT22;5650;52.700;7.306;2023-10-19T02:31:33;8.20;99.90
11188;DHT22;5650;52.700;7.306;2023-10-19T02:33:59;8.20;99.90
11188;DHT22;5650;52.700;7.306;2023-10-19T02:36:27;8.20;99.90
11188;DHT22;5650;52.700;7.306;2023-10-19T02:38:54;8.20;99.90
11188;DHT22;5650;52.700;7.306;2023-10-19T02:41:26;8.20;99.90
11188;DHT22;5650;52.700;7.306;2023-10-19T02:43:58;8.20;99.90
11188;DHT22;5650;52.700;7.306;2023-10-19T02:46:33;8.20;99.90
11188;DHT22;5650;52.700;7.306;2023-10-19T02:49:04;8.20;99.90
11188;DHT22;5650;52.700;7.306;2023-10-19T02:51:42;8.20;99.90
11188;DHT22;5650;52.700;7.306;2023-10-19T02:54:10;8.20;99.90
11188;DHT22;5650;52.700;7.306;2023-10-19T02:56:45;8.30;99.90
11188;DHT22;5650;52.700;7.306;2023-10-19T02:59:19;8.30;99.90
11188;DHT22;5650;52.700;7.306;2023-10-19T03:01:48;8.30;99.90
11188;DHT22;5650;52.700;7.306;2023-10-19T03:04:16;8.30;99.90
11188;DHT22;5650;52.700;7.306;2023-10-19T03:06:43;8.30;99.90
11188;DHT22;5650;52.700;7.306;2023-10-19T03:09:12;8.30;99.90
11188;DHT22;5650;52.700;7.306;2023-10-19T03:11:50;8.30;99.90
11188;DHT22;5650;52.700;7.306;2023-10-19T03:14:19;8.30;99.90
11188;DHT22;5650;52.700;7.306;2023-10-19T03:16:50;8.30;99.90
11188;DHT22;5650;52.700;7.306;2023-10-19T03:19:17;8.30;99.90
11188;DHT22;5650;52.700;7.306;2023-10-19T03:21:47;8.30;99.90
11188;DHT22;5650;52.700;7.306;2023-10-19T03:24:15;8.40;99.90
11188;DHT22;5650;52.700;7.306;2023-10-19T03:27:02;8.30;99.90
11188;DHT22;5650;52.700;7.306;2023-10-19T03:29:37;8.40;99.90
11188;DHT22;5650;52.700;7.306;2023-10-19T03:32:06;8.40;99.90
11188;DHT22;5650;52.700;7.306;2023-10-19T03:34:35;8.40;99.90
11188;DHT22;5650;52.700;7.306;2023-10-19T03:37:03;8.40;99.90
11188;DHT22;5650;52.700;7.306;2023-10-19T03:39:37;8.40;99.90
11188;DHT22;5650;52.700;7.306;2023-10-19T03:42:25;8.40;99.90
11188;DHT22;5650;52.700;7.306;2023-10-19T03:44:57;8.40;99.90
11188;DHT22;5650;52.700;7.306;2023-10-19T03:47:27;8.40;99.90
11188;DHT22;5650;52.700;7.306;2023-10-19T03:50:01;8.40;99.90
11188;DHT22;5650;52.700;7.306;2023-10-19T03:52:32;8.50;99.90
11188;DHT22;5650;52.700;7.306;2023-10-19T03:55:02;8.40;99.90
11188;DHT22;5650;52.700;7.306;2023-10-19T03:57:32;8.40;99.90
11188;DHT22;5650;52.700;7.306;2023-10-19T04:00:00;8.40;99.90
11188;DHT22;5650;52.700;7.306;2023-10-19T04:02:41;8.50;99.90
11188;DHT22;5650;52.700;7.306;2023-10-19T04:05:11;8.40;99.90
11188;DHT22;5650;52.700;7.306;2023-10-19T04:07:41;8.40;99.90
11188;DHT22;5650;52.700;7.306;2023-10-19T04:10:12;8.50;99.90
11188;DHT22;5650;52.700;7.306;2023-10-19T04:12:56;8.50;99.90
11188;DHT22;5650;52.700;7.306;2023-10-19T04:15:41;8.50;99.90
11188;DHT22;5650;52.700;7.306;2023-10-19T04:18:11;8.50;99.90
11188;DHT22;5650;52.700;7.306;2023-10-19T04:20:39;8.50;99.90
11188;DHT22;5650;52.700;7.306;2023-10-19T04:23:20;8.50;99.90
11188;DHT22;5650;52.700;7.306;2023-10-19T04:25:48;8.50;99.90
11188;DHT22;5650;52.700;7.306;2023-10-19T04:28:15;8.50;99.90
11188;DHT22;5650;52.700;7.306;2023-10-19T04:30:47;8.50;99.90
11188;DHT22;5650;52.700;7.306;2023-10-19T04:33:15;8.60;99.90
11188;DHT22;5650;52.700;7.306;2023-10-19T04:35:44;8.60;99.90
11188;DHT22;5650;52.700;7.306;2023-10-19T04:38:13;8.60;99.90
11188;DHT22;5650;52.700;7.306;2023-10-19T04:40:46;8.60;99.90
11188;DHT22;5650;52.700;7.306;2023-10-19T04:43:13;8.60;99.90
11188;DHT22;5650;52.700;7.306;2023-10-19T04:45:42;8.60;99.90
11188;DHT22;5650;52.700;7.306;2023-10-19T04:48:11;8.60;99.90
11188;DHT22;5650;52.700;7.306;2023-10-19T04:50:38;8.60;99.90
11188;DHT22;5650;52.700;7.306;2023-10-19T04:53:07;8.60;99.90
11188;DHT22;5650;52.700;7.306;2023-10-19T04:55:35;8.60;99.90
11188;DHT22;5650;52.700;7.306;2023-10-19T04:58:03;8.60;99.90
11188;DHT22;5650;52.700;7.306;2023-10-19T05:00:31;8.60;99.90
11188;DHT22;5650;52.700;7.306;2023-10-19T05:02:59;8.60;99.90
11188;DHT22;5650;52.700;7.306;2023-10-19T05:05:28;8.60;99.90
11188;DHT22;5650;52.700;7.306;2023-10-19T05:07:56;8.60;99.90
11188;DHT22;5650;52.700;7.306;2023-10-19T05:10:25;8.70;99.90
11188;DHT22;5650;52.700;7.306;2023-10-19T05:12:56;8.70;99.90
11188;DHT22;5650;52.700;7.306;2023-10-19T05:15:24;8.60;99.90
11188;DHT22;5650;52.700;7.306;2023-10-19T05:17:52;8.60;99.90
11188;DHT22;5650;52.700;7.306;2023-10-19T05:20:24;8.60;99.90
11188;DHT22;5650;52.700;7.306;2023-10-19T05:22:53;8.70;99.90
11188;DHT22;5650;52.700;7.306;2023-10-19T05:25:26;8.70;99.90
11188;DHT22;5650;52.700;7.306;2023-10-19T05:27:53;8.70;99.90
11188;DHT22;5650;52.700;7.306;2023-10-19T05:30:20;8.70;99.90
11188;DHT22;5650;52.700;7.306;2023-10-19T05:32:50;8.70;99.90
11188;DHT22;5650;52.700;7.306;2023-10-19T05:35:26;8.70;99.90
11188;DHT22;5650;52.700;7.306;2023-10-19T05:37:56;8.70;99.90
11188;DHT22;5650;52.700;7.306;2023-10-19T05:40:24;8.70;99.90
11188;DHT22;5650;52.700;7.306;2023-10-19T05:42:58;8.70;99.90
11188;DHT22;5650;52.700;7.306;2023-10-19T05:45:27;8.70;99.90
11188;DHT22;5650;52.700;7.306;2023-10-19T05:47:55;8.70;99.90
11188;DHT22;5650;52.700;7.306;2023-10-19T05:50:24;8.70;99.90
11188;DHT22;5650;52.700;7.306;2023-10-19T05:52:51;8.70;99.90
11188;DHT22;5650;52.700;7.306;2023-10-19T05:55:20;8.70;99.90
11188;DHT22;5650;52.700;7.306;2023-10-19T05:57:53;8.70;99.90
11188;DHT22;5650;52.700;7.306;2023-10-19T06:00:26;8.60;99.90
11188;DHT22;5650;52.700;7.306;2023-10-19T06:02:54;8.60;99.90
11188;DHT22;5650;52.700;7.306;2023-10-19T06:05:21;8.60;99.90
11188;DHT22;5650;52.700;7.306;2023-10-19T06:07:56;8.60;99.90
11188;DHT22;5650;52.700;7.306;2023-10-19T06:10:27;8.70;99.90
11188;DHT22;5650;52.700;7.306;2023-10-19T06:12:56;8.70;99.90
11188;DHT22;5650;52.700;7.306;2023-10-19T06:15:24;8.70;99.90
11188;DHT22;5650;52.700;7.306;2023-10-19T06:17:51;8.70;99.90
11188;DHT22;5650;52.700;7.306;2023-10-19T06:20:24;8.70;99.90
11188;DHT22;5650;52.700;7.306;2023-10-19T06:22:53;8.70;99.90
11188;DHT22;5650;52.700;7.306;2023-10-19T06:25:23;8.70;99.90
11188;DHT22;5650;52.700;7.306;2023-10-19T06:27:53;8.70;99.90
11188;DHT22;5650;52.700;7.306;2023-10-19T06:30:23;8.70;99.90
11188;DHT22;5650;52.700;7.306;2023-10-19T06:32:57;8.70;99.90
11188;DHT22;5650;52.700;7.306;2023-10-19T06:35:30;8.70;99.90
11188;DHT22;5650;52.700;7.306;2023-10-19T06:37:59;8.70;99.90
11188;DHT22;5650;52.700;7.306;2023-10-19T06:40:27;8.70;99.90
11188;DHT22;5650;52.700;7.306;2023-10-19T06:42:57;8.70;99.90
11188;DHT22;5650;52.700;7.306;2023-10-19T06:45:25;8.70;99.90
11188;DHT22;5650;52.700;7.306;2023-10-19T06:47:56;8.70;99.90
11188;DHT22;5650;52.700;7.306;2023-10-19T06:50:24;8.70;99.90
11188;DHT22;5650;52.700;7.306;2023-10-19T06:52:52;8.80;99.90
11188;DHT22;5650;52.700;7.306;2023-10-19T06:55:29;8.80;99.90
11188;DHT22;5650;52.700;7.306;2023-10-19T06:58:00;8.80;99.90
11188;DHT22;5650;52.700;7.306;2023-10-19T07:00:28;8.80;99.90
11188;DHT22;5650;52.700;7.306;2023-10-19T07:02:56;8.80;99.90
11188;DHT22;5650;52.700;7.306;2023-10-19T07:05:34;8.80;99.90
11188;DHT22;5650;52.700;7.306;2023-10-19T07:08:01;8.80;99.90
11188;DHT22;5650;52.700;7.306;2023-10-19T07:10:32;8.80;99.90
11188;DHT22;5650;52.700;7.306;2023-10-19T07:13:02;8.90;99.90
11188;DHT22;5650;52.700;7.306;2023-10-19T07:15:29;8.90;99.90
11188;DHT22;5650;52.700;7.306;2023-10-19T07:18:04;9.00;99.90
11188;DHT22;5650;52.700;7.306;2023-10-19T07:20:35;9.00;99.90
11188;DHT22;5650;52.700;7.306;2023-10-19T07:23:05;9.00;99.90
11188;DHT22;5650;52.700;7.306;2023-10-19T07:25:36;9.00;99.90
11188;DHT22;5650;52.700;7.306;2023-10-19T07:28:14;9.00;99.90
11188;DHT22;5650;52.700;7.306;2023-10-19T07:30:42;9.00;99.90
11188;DHT22;5650;52.700;7.306;2023-10-19T07:33:10;9.00;99.90
11188;DHT22;5650;52.700;7.306;2023-10-19T07:35:43;9.00;99.90
11188;DHT22;5650;52.700;7.306;2023-10-19T07:38:13;9.00;99.90
11188;DHT22;5650;52.700;7.306;2023-10-19T07:40:45;9.00;99.90
11188;DHT22;5650;52.700;7.306;2023-10-19T07:43:14;9.00;99.90
11188;DHT22;5650;52.700;7.306;2023-10-19T07:45:41;9.00;99.90
11188;DHT22;5650;52.700;7.306;2023-10-19T07:48:15;9.00;99.90
11188;DHT22;5650;52.700;7.306;2023-10-19T07:50:43;9.00;99.90
11188;DHT22;5650;52.700;7.306;2023-10-19T07:53:11;9.00;99.90
11188;DHT22;5650;52.700;7.306;2023-10-19T07:55:38;9.00;99.90
11188;DHT22;5650;52.700;7.306;2023-10-19T07:58:08;9.00;99.90
11188;DHT22;5650;52.700;7.306;2023-10-19T08:00:48;9.00;99.90
11188;DHT22;5650;52.700;7.306;2023-10-19T08:03:16;9.10;99.90
11188;DHT22;5650;52.700;7.306;2023-10-19T08:05:45;9.00;99.90
11188;DHT22;5650;52.700;7.306;2023-10-19T08:08:12;9.10;99.90
11188;DHT22;5650;52.700;7.306;2023-10-19T08:10:39;9.10;99.90
11188;DHT22;5650;52.700;7.306;2023-10-19T08:13:06;9.10;99.90
11188;DHT22;5650;52.700;7.306;2023-10-19T08:15:34;9.10;99.90
11188;DHT22;5650;52.700;7.306;2023-10-19T08:18:05;9.10;99.90
11188;DHT22;5650;52.700;7.306;2023-10-19T08:20:35;9.10;99.90
11188;DHT22;5650;52.700;7.306;2023-10-19T08:23:07;9.20;99.90
11188;DHT22;5650;52.700;7.306;2023-10-19T08:25:37;9.20;99.90
11188;DHT22;5650;52.700;7.306;2023-10-19T08:28:08;9.20;99.90
11188;DHT22;5650;52.700;7.306;2023-10-19T08:30:36;9.20;99.90
11188;DHT22;5650;52.700;7.306;2023-10-19T08:33:08;9.30;99.90
11188;DHT22;5650;52.700;7.306;2023-10-19T08:35:35;9.30;99.90
11188;DHT22;5650;52.700;7.306;2023-10-19T08:38:05;9.30;99.90
11188;DHT22;5650;52.700;7.306;2023-10-19T08:40:37;9.30;99.90
11188;DHT22;5650;52.700;7.306;2023-10-19T08:43:08;9.30;99.90
11188;DHT22;5650;52.700;7.306;2023-10-19T08:45:42;9.30;99.90
11188;DHT22;5650;52.700;7.306;2023-10-19T08:48:13;9.30;99.90
11188;DHT22;5650;52.700;7.306;2023-10-19T08:50:41;9.30;99.90
11188;DHT22;5650;52.700;7.306;2023-10-19T08:53:09;9.30;99.90
11188;DHT22;5650;52.700;7.306;2023-10-19T08:55:39;9.40;99.90
11188;DHT22;5650;52.700;7.306;2023-10-19T08:58:06;9.40;99.90
11188;DHT22;5650;52.700;7.306;2023-10-19T09:00:47;9.40;99.90
11188;DHT22;5650;52.700;7.306;2023-10-19T09:03:16;9.50;99.90
11188;DHT22;5650;52.700;7.306;2023-10-19T09:05:46;9.50;99.90
11188;DHT22;5650;52.700;7.306;2023-10-19T09:08:18;9.50;99.90
11188;DHT22;5650;52.700;7.306;2023-10-19T09:10:46;9.50;99.90
11188;DHT22;5650;52.700;7.306;2023-10-19T09:13:13;9.60;99.90
11188;DHT22;5650;52.700;7.306;2023-10-19T09:15:44;9.60;99.90
11188;DHT22;5650;52.700;7.306;2023-10-19T09:18:16;9.70;99.90
11188;DHT22;5650;52.700;7.306;2023-10-19T09:20:45;9.70;99.90
11188;DHT22;5650;52.700;7.306;2023-10-19T09:23:26;9.70;99.90
11188;DHT22;5650;52.700;7.306;2023-10-19T09:25:57;9.70;99.90
11188;DHT22;5650;52.700;7.306;2023-10-19T09:28:28;9.70;99.90
11188;DHT22;5650;52.700;7.306;2023-10-19T09:30:55;9.70;99.90
11188;DHT22;5650;52.700;7.306;2023-10-19T09:33:24;9.70;99.90
11188;DHT22;5650;52.700;7.306;2023-10-19T09:35:52;9.70;99.90
11188;DHT22;5650;52.700;7.306;2023-10-19T09:38:22;9.70;99.90
11188;DHT22;5650;52.700;7.306;2023-10-19T09:40:53;9.70;99.90
11188;DHT22;5650;52.700;7.306;2023-10-19T09:43:26;9.80;99.90
11188;DHT22;5650;52.700;7.306;2023-10-19T09:46:01;9.80;99.90
11188;DHT22;5650;52.700;7.306;2023-10-19T09:48:34;9.90;99.90
11188;DHT22;5650;52.700;7.306;2023-10-19T09:51:08;9.90;99.90
11188;DHT22;5650;52.700;7.306;2023-10-19T09:53:38;10.00;99.90
11188;DHT22;5650;52.700;7.306;2023-10-19T09:56:08;10.00;99.90
11188;DHT22;5650;52.700;7.306;2023-10-19T09:58:41;10.00;99.90
11188;DHT22;5650;52.700;7.306;2023-10-19T10:01:12;10.00;99.90
11188;DHT22;5650;52.700;7.306;2023-10-19T10:03:45;10.00;99.90
11188;DHT22;5650;52.700;7.306;2023-10-19T10:06:12;10.00;99.90
11188;DHT22;5650;52.700;7.306;2023-10-19T10:08:41;10.00;99.90
11188;DHT22;5650;52.700;7.306;2023-10-19T10:11:22;10.00;99.90
11188;DHT22;5650;52.700;7.306;2023-10-19T10:13:53;10.10;99.90
11188;DHT22;5650;52.700;7.306;2023-10-19T10:16:23;10.20;99.90
11188;DHT22;5650;52.700;7.306;2023-10-19T10:18:54;10.20;99.90
11188;DHT22;5650;52.700;7.306;2023-10-19T10:21:25;10.20;99.90
11188;DHT22;5650;52.700;7.306;2023-10-19T10:23:54;10.30;99.90
11188;DHT22;5650;52.700;7.306;2023-10-19T10:26:23;10.30;99.90
11188;DHT22;5650;52.700;7.306;2023-10-19T10:29:13;10.30;99.90
11188;DHT22;5650;52.700;7.306;2023-10-19T10:31:46;10.30;99.90
11188;DHT22;5650;52.700;7.306;2023-10-19T10:34:44;10.40;99.90
11188;DHT22;5650;52.700;7.306;2023-10-19T10:37:12;10.40;99.90
11188;DHT22;5650;52.700;7.306;2023-10-19T10:39:40;10.50;99.90
11188;DHT22;5650;52.700;7.306;2023-10-19T10:42:10;10.50;99.90
11188;DHT22;5650;52.700;7.306;2023-10-19T10:44:39;10.50;99.90
11188;DHT22;5650;52.700;7.306;2023-10-19T10:47:07;10.60;99.90
11188;DHT22;5650;52.700;7.306;2023-10-19T10:49:50;10.50;99.90
11188;DHT22;5650;52.700;7.306;2023-10-19T10:52:29;10.50;99.90
11188;DHT22;5650;52.700;7.306;2023-10-19T10:54:58;10.50;99.90
11188;DHT22;5650;52.700;7.306;2023-10-19T10:57:31;10.50;99.90
11188;DHT22;5650;52.700;7.306;2023-10-19T11:00:06;10.50;99.90
11188;DHT22;5650;52.700;7.306;2023-10-19T11:02:34;10.50;99.90
11188;DHT22;5650;52.700;7.306;2023-10-19T11:05:04;10.50;99.90
11188;DHT22;5650;52.700;7.306;2023-10-19T11:07:37;10.60;99.90
11188;DHT22;5650;52.700;7.306;2023-10-19T11:10:05;10.60;99.90
11188;DHT22;5650;52.700;7.306;2023-10-19T11:12:33;10.60;99.90
11188;DHT22;5650;52.700;7.306;2023-10-19T11:15:00;10.60;99.90
11188;DHT22;5650;52.700;7.306;2023-10-19T11:17:42;10.60;99.90
11188;DHT22;5650;52.700;7.306;2023-10-19T11:20:20;10.60;99.90
11188;DHT22;5650;52.700;7.306;2023-10-19T11:22:48;10.70;99.90
11188;DHT22;5650;52.700;7.306;2023-10-19T11:25:20;10.70;99.90
11188;DHT22;5650;52.700;7.306;2023-10-19T11:27:47;10.70;99.90
11188;DHT22;5650;52.700;7.306;2023-10-19T11:30:23;10.70;99.90
11188;DHT22;5650;52.700;7.306;2023-10-19T11:32:50;10.70;99.90
11188;DHT22;5650;52.700;7.306;2023-10-19T11:35:24;10.70;99.90
11188;DHT22;5650;52.700;7.306;2023-10-19T11:37:52;10.70;99.90
11188;DHT22;5650;52.700;7.306;2023-10-19T11:40:21;10.70;99.90
11188;DHT22;5650;52.700;7.306;2023-10-19T11:42:50;10.80;99.90
11188;DHT22;5650;52.700;7.306;2023-10-19T11:45:18;10.80;99.90
11188;DHT22;5650;52.700;7.306;2023-10-19T11:47:45;10.80;99.90
11188;DHT22;5650;52.700;7.306;2023-10-19T11:50:12;10.80;99.90
11188;DHT22;5650;52.700;7.306;2023-10-19T11:52:42;10.80;99.90
11188;DHT22;5650;52.700;7.306;2023-10-19T11:55:11;10.80;99.90
11188;DHT22;5650;52.700;7.306;2023-10-19T11:57:39;10.80;99.90
11188;DHT22;5650;52.700;7.306;2023-10-19T12:00:10;10.90;99.90
11188;DHT22;5650;52.700;7.306;2023-10-19T12:02:45;10.90;99.90
11188;DHT22;5650;52.700;7.306;2023-10-19T12:05:12;10.90;99.90
11188;DHT22;5650;52.700;7.306;2023-10-19T12:07:41;11.00;99.90
11188;DHT22;5650;52.700;7.306;2023-10-19T12:10:13;11.00;99.90
11188;DHT22;5650;52.700;7.306;2023-10-19T12:12:43;11.10;99.90
11188;DHT22;5650;52.700;7.306;2023-10-19T12:15:11;11.20;99.90
11188;DHT22;5650;52.700;7.306;2023-10-19T12:17:39;11.30;99.90
11188;DHT22;5650;52.700;7.306;2023-10-19T12:20:09;11.30;99.90
11188;DHT22;5650;52.700;7.306;2023-10-19T12:22:44;11.30;99.90
11188;DHT22;5650;52.700;7.306;2023-10-19T12:25:15;11.30;99.90
11188;DHT22;5650;52.700;7.306;2023-10-19T12:27:42;11.30;99.90
11188;DHT22;5650;52.700;7.306;2023-10-19T12:30:12;11.40;99.90
11188;DHT22;5650;52.700;7.306;2023-10-19T12:32:49;11.40;99.90
11188;DHT22;5650;52.700;7.306;2023-10-19T12:35:19;11.40;99.90
11188;DHT22;5650;52.700;7.306;2023-10-19T12:37:51;11.40;99.90
11188;DHT22;5650;52.700;7.306;2023-10-19T12:40:19;11.50;99.90
11188;DHT22;5650;52.700;7.306;2023-10-19T12:42:57;11.40;99.90
11188;DHT22;5650;52.700;7.306;2023-10-19T12:45:29;11.40;99.90
11188;DHT22;5650;52.700;7.306;2023-10-19T12:48:03;11.40;99.90
11188;DHT22;5650;52.700;7.306;2023-10-19T12:50:34;11.50;99.90
11188;DHT22;5650;52.700;7.306;2023-10-19T12:53:04;11.50;99.90
11188;DHT22;5650;52.700;7.306;2023-10-19T12:55:32;11.60;99.90
11188;DHT22;5650;52.700;7.306;2023-10-19T12:58:00;11.70;99.90
11188;DHT22;5650;52.700;7.306;2023-10-19T13:00:35;11.80;99.90
11188;DHT22;5650;52.700;7.306;2023-10-19T13:03:09;11.80;99.90
11188;DHT22;5650;52.700;7.306;2023-10-19T13:05:40;11.90;99.90
11188;DHT22;5650;52.700;7.306;2023-10-19T13:08:10;11.90;99.90
11188;DHT22;5650;52.700;7.306;2023-10-19T13:10:47;11.90;99.90
11188;DHT22;5650;52.700;7.306;2023-10-19T13:13:16;11.80;99.90
11188;DHT22;5650;52.700;7.306;2023-10-19T13:15:45;11.80;99.90
11188;DHT22;5650;52.700;7.306;2023-10-19T13:18:14;11.80;99.90
11188;DHT22;5650;52.700;7.306;2023-10-19T13:20:53;11.80;99.90
11188;DHT22;5650;52.700;7.306;2023-10-19T13:23:25;11.80;99.90
11188;DHT22;5650;52.700;7.306;2023-10-19T13:25:52;11.90;99.90
11188;DHT22;5650;52.700;7.306;2023-10-19T13:28:23;11.90;99.90
11188;DHT22;5650;52.700;7.306;2023-10-19T13:30:53;11.90;99.90
11188;DHT22;5650;52.700;7.306;2023-10-19T13:33:21;11.80;99.90
11188;DHT22;5650;52.700;7.306;2023-10-19T13:35:50;11.80;99.90
11188;DHT22;5650;52.700;7.306;2023-10-19T13:38:18;11.70;99.90
11188;DHT22;5650;52.700;7.306;2023-10-19T13:40:48;11.80;99.90
11188;DHT22;5650;52.700;7.306;2023-10-19T13:43:16;11.80;99.90
11188;DHT22;5650;52.700;7.306;2023-10-19T13:45:47;11.80;99.90
11188;DHT22;5650;52.700;7.306;2023-10-19T13:48:14;11.70;99.90
11188;DHT22;5650;52.700;7.306;2023-10-19T13:50:43;11.70;99.90
11188;DHT22;5650;52.700;7.306;2023-10-19T13:53:11;11.70;99.90
11188;DHT22;5650;52.700;7.306;2023-10-19T13:55:38;11.60;99.90
11188;DHT22;5650;52.700;7.306;2023-10-19T13:58:10;11.60;99.90
11188;DHT22;5650;52.700;7.306;2023-10-19T14:00:41;11.60;99.90
11188;DHT22;5650;52.700;7.306;2023-10-19T14:03:12;11.60;99.90
11188;DHT22;5650;52.700;7.306;2023-10-19T14:05:43;11.50;99.90
11188;DHT22;5650;52.700;7.306;2023-10-19T14:08:14;11.50;99.90
11188;DHT22;5650;52.700;7.306;2023-10-19T14:10:41;11.50;99.90
11188;DHT22;5650;52.700;7.306;2023-10-19T14:13:11;11.50;99.90
11188;DHT22;5650;52.700;7.306;2023-10-19T14:15:39;11.60;99.90
11188;DHT22;5650;52.700;7.306;2023-10-19T14:18:08;11.60;99.90
11188;DHT22;5650;52.700;7.306;2023-10-19T14:20:45;11.50;99.90
11188;DHT22;5650;52.700;7.306;2023-10-19T14:23:12;11.50;99.90
11188;DHT22;5650;52.700;7.306;2023-10-19T14:25:45;11.50;99.90
11188;DHT22;5650;52.700;7.306;2023-10-19T14:28:14;11.50;99.90
11188;DHT22;5650;52.700;7.306;2023-10-19T14:30:41;11.50;99.90
11188;DHT22;5650;52.700;7.306;2023-10-19T14:33:09;11.50;99.90
11188;DHT22;5650;52.700;7.306;2023-10-19T14:35:36;11.50;99.90
11188;DHT22;5650;52.700;7.306;2023-10-19T14:38:07;11.40;99.90
11188;DHT22;5650;52.700;7.306;2023-10-19T14:40:35;11.40;99.90
11188;DHT22;5650;52.700;7.306;2023-10-19T14:43:02;11.40;99.90
11188;DHT22;5650;52.700;7.306;2023-10-19T14:45:31;11.40;99.90
11188;DHT22;5650;52.700;7.306;2023-10-19T14:47:59;11.40;99.90
11188;DHT22;5650;52.700;7.306;2023-10-19T14:50:29;11.30;99.90
11188;DHT22;5650;52.700;7.306;2023-10-19T14:52:56;11.30;99.90
11188;DHT22;5650;52.700;7.306;2023-10-19T14:55:24;11.30;99.90
11188;DHT22;5650;52.700;7.306;2023-10-19T14:57:52;11.30;99.90
11188;DHT22;5650;52.700;7.306;2023-10-19T15:00:21;11.30;99.90
11188;DHT22;5650;52.700;7.306;2023-10-19T15:02:55;11.30;99.90
11188;DHT22;5650;52.700;7.306;2023-10-19T15:05:27;11.20;99.90
11188;DHT22;5650;52.700;7.306;2023-10-19T15:07:55;11.20;99.90
11188;DHT22;5650;52.700;7.306;2023-10-19T15:10:24;11.20;99.90
11188;DHT22;5650;52.700;7.306;2023-10-19T15:12:52;11.20;99.90
11188;DHT22;5650;52.700;7.306;2023-10-19T15:15:20;11.10;99.90
11188;DHT22;5650;52.700;7.306;2023-10-19T15:17:47;11.10;99.90
11188;DHT22;5650;52.700;7.306;2023-10-19T15:20:18;11.10;99.90
11188;DHT22;5650;52.700;7.306;2023-10-19T15:22:46;11.00;99.90
11188;DHT22;5650;52.700;7.306;2023-10-19T15:25:14;11.00;99.90
11188;DHT22;5650;52.700;7.306;2023-10-19T15:27:45;10.90;99.90
11188;DHT22;5650;52.700;7.306;2023-10-19T15:30:14;10.90;99.90
11188;DHT22;5650;52.700;7.306;2023-10-19T15:32:44;10.90;99.90
11188;DHT22;5650;52.700;7.306;2023-10-19T15:35:13;10.80;99.90
11188;DHT22;5650;52.700;7.306;2023-10-19T15:37:45;10.80;99.90
11188;DHT22;5650;52.700;7.306;2023-10-19T15:40:14;10.80;99.90
11188;DHT22;5650;52.700;7.306;2023-10-19T15:42:41;10.80;99.90
11188;DHT22;5650;52.700;7.306;2023-10-19T15:45:09;10.80;99.90
11188;DHT22;5650;52.700;7.306;2023-10-19T15:47:37;10.80;99.90
11188;DHT22;5650;52.700;7.306;2023-10-19T15:50:07;10.70;99.90
11188;DHT22;5650;52.700;7.306;2023-10-19T15:52:35;10.70;99.90
11188;DHT22;5650;52.700;7.306;2023-10-19T15:55:09;10.70;99.90
11188;DHT22;5650;52.700;7.306;2023-10-19T15:57:37;10.60;99.90
11188;DHT22;5650;52.700;7.306;2023-10-19T16:00:07;10.60;99.90
11188;DHT22;5650;52.700;7.306;2023-10-19T16:02:39;10.60;99.90
11188;DHT22;5650;52.700;7.306;2023-10-19T16:05:06;10.60;99.90
11188;DHT22;5650;52.700;7.306;2023-10-19T16:07:34;10.50;99.90
11188;DHT22;5650;52.700;7.306;2023-10-19T16:10:02;10.50;99.90
11188;DHT22;5650;52.700;7.306;2023-10-19T16:12:31;10.40;99.90
11188;DHT22;5650;52.700;7.306;2023-10-19T16:14:58;10.40;99.90
11188;DHT22;5650;52.700;7.306;2023-10-19T16:17:26;10.40;99.90